TimeCEST,TemperatureF,Dew PointF,Humidity,Sea Level PressureIn,VisibilityMPH,Wind Direction,Wind SpeedMPH,Gust SpeedMPH,PrecipitationIn,Events,Conditions,WindDirDegrees,DateUTC
1:55 AM,46.4,44.6,93,30.48,6.2,East,4.6,-,N/A,Rain-Thunderstorm,Light Thunderstorms and Rain,100,2013-07-06 23:55:00
2:00 AM,47,45,92,,6,East,4.6,,,Rain-Thunderstorm,Thunderstorms and Rain,100,2013-07-07 00:00:00
4:55 AM,46.4,44.6,93,30.48,6.2,NNW,4.6,-,N/A,,Partly Cloudy,340,2013-07-07 02:55:00
5:00 AM,46,45,94,,12,NNW,4.6,,,,Partly Cloudy,340,2013-07-07 03:00:00
5:55 AM,46.4,42.8,87,30.48,-9999.0,NNW,5.8,-,N/A,,Clear,340,2013-07-07 03:55:00
6:55 AM,46.4,42.8,87,30.45,-9999.0,NW,2.3,-,N/A,,Clear,310,2013-07-07 04:55:00
7:55 AM,50.0,44.6,82,30.45,-9999.0,SSW,2.3,-,N/A,,Clear,210,2013-07-07 05:55:00
8:00 AM,49,45,79,,19,SSW,2.3,,,,Partly Cloudy,210,2013-07-07 06:00:00
8:55 AM,50.0,42.8,76,30.45,6.2,Calm,Calm,-,N/A,,Partly Cloudy,0,2013-07-07 06:55:00
9:55 AM,51.8,41.0,67,30.45,6.2,East,5.8,-,N/A,,Partly Cloudy,90,2013-07-07 07:55:00
10:55 AM,53.6,41.0,62,30.48,6.2,East,5.8,-,N/A,,Scattered Clouds,80,2013-07-07 08:55:00
11:00 AM,54,40,49,,19,East,5.8,,,,Partly Cloudy,80,2013-07-07 09:00:00
11:55 AM,57.2,42.8,59,30.48,6.2,SE,4.6,-,N/A,,Scattered Clouds,130,2013-07-07 09:55:00
12:55 PM,57.2,39.2,51,30.48,6.2,SE,5.8,-,N/A,,Mostly Cloudy,130,2013-07-07 10:55:00
1:55 PM,55.4,42.8,63,30.48,6.2,ESE,5.8,-,N/A,,Mostly Cloudy,120,2013-07-07 11:55:00
2:00 PM,56,43,51,,19,ESE,5.8,,,,Mostly Cloudy,120,2013-07-07 12:00:00
2:55 PM,59.0,44.6,59,30.48,6.2,SE,8.1,-,N/A,,Mostly Cloudy,140,2013-07-07 12:55:00
3:55 PM,55.4,50.0,82,30.48,6.2,ESE,9.2,-,N/A,,Mostly Cloudy,120,2013-07-07 13:55:00
4:55 PM,53.6,44.6,72,30.48,6.2,SE,10.4,-,N/A,,Mostly Cloudy,140,2013-07-07 14:55:00
5:00 PM,54,44,61,,19,SE,10.4,,,,Mostly Cloudy,140,2013-07-07 15:00:00
5:55 PM,53.6,42.8,67,30.48,6.2,NE,4.6,-,N/A,Thunderstorm,Light Thunderstorm,50,2013-07-07 15:55:00
6:55 PM,57.2,48.2,72,30.48,6.2,ESE,6.9,-,N/A,Thunderstorm,Light Thunderstorm,120,2013-07-07 16:55:00
7:55 PM,53.6,50.0,88,30.48,6.2,West,4.6,-,N/A,,Partly Cloudy,280,2013-07-07 17:55:00
8:00 PM,54,50,81,,19,West,4.6,,,Thunderstorm,Light Thunderstorm,280,2013-07-07 18:00:00
10:55 PM,50.0,48.2,94,30.48,-9999.0,SE,6.9,-,N/A,,Clear,130,2013-07-07 20:55:00
11:00 PM,50,47,88,,6,SE,6.9,,,,Mostly Cloudy,130,2013-07-07 21:00:00